METAR Data
IDs: Format: Raw Decoded Include TAF

Data at: 2331 UTC 25 Oct 2021

PAIG 252256Z AUTO 27006KT 1 1/4SM HZ FEW016 OVC060 01/M02 A2918 RMK AO2 SLP888 T00111017 PWINO FZRANO $
PAIG 252156Z AUTO 32007KT 1 1/4SM HZ OVC065 01/M02 A2918 RMK AO2 SLP889 T00111022 PWINO FZRANO $
PAIG 252056Z AUTO 33004KT 1 1/4SM HZ BKN033 01/M03 A2918 RMK AO2 SLP889 T00111028 51002 PWINO FZRANO $
PAIG 252021Z AUTO 31006KT 1 1/4SM HZ BKN031 OVC044 01/M03 A2918 RMK AO2 PWINO FZRANO $
PAIG 251956Z AUTO 32007KT 1 1/4SM HZ BKN029 OVC044 01/M03 A2918 RMK AO2 SLP889 T00061028 PWINO FZRANO $
PAIG 251951Z AUTO 31006KT 1 1/4SM HZ BKN029 OVC044 01/M02 A2918 RMK AO2 PWINO FZRANO $
PAIG 251856Z AUTO 33005KT 1 1/4SM BR OVC046 M01/M02 A2917 RMK AO2 SLP887 T10061022 PWINO FZRANO $
PAIG 251756Z AUTO 25003KT 1 1/4SM BR OVC044 M01/M03 A2917 RMK AO2 SLP885 T10111028 10000 21017 58002 PWINO FZRANO $
PAIG 251714Z AUTO 27005KT 1 1/4SM BR FEW024 OVC046 M01/M03 A2917 RMK AO2 PWINO FZRANO $
PAIG 251656Z AUTO 29004KT 1 1/4SM BR BKN024 OVC048 M01/M03 A2917 RMK AO2 SLP887 T10111028 PWINO FZRANO $
PAIG 251624Z AUTO 30005KT 1 1/4SM BR BKN024 M01/M03 A2917 RMK AO2 PWINO FZRANO $
PAIG 251604Z AUTO 31006KT 1 1/4SM BR SCT024 M01/M03 A2917 RMK AO2 PWINO FZRANO $
PAIG 251556Z AUTO 31006KT 1 1/4SM BR BKN024 M01/M02 A2917 RMK AO2 SLP886 T10111022 PWINO FZRANO $
PAIG 251456Z AUTO 32008KT 1 1/4SM BR OVC024 M01/M02 A2917 RMK AO2 SLP887 T10061022 56011 PWINO FZRANO $
PAIG 251356Z AUTO 32007KT 1 1/4SM BR OVC026 M01/M02 A2918 RMK AO2 SLP890 T10061022 PWINO FZRANO $
PAIG 251256Z AUTO 31004KT 1 1/4SM BR OVC026 M01/M02 A2919 RMK AO2 SLP895 T10061017 PWINO FZRANO $
PAIG 251156Z AUTO 32007KT 1 1/4SM BR FEW020 OVC028 M01/M02 A2921 RMK AO2 SLP898 70002 T10061017 10000 21006 58011 PWINO FZRANO $
PAIG 251056Z AUTO 32006KT 1 1/4SM BR SCT014 SCT023 OVC028 00/M01 A2922 RMK AO2 SLP904 T00001011 PWINO FZRANO $
PAIG 251054Z AUTO 31007KT 1 1/4SM BR SCT014 SCT023 OVC028 00/M01 A2922 RMK AO2 PWINO FZRANO $
PAIG 250956Z AUTO 31006KT 1 1/4SM BR OVC012 00/M01 A2924 RMK AO2 SLP909 T00001011 PWINO FZRANO $
PAIG 250856Z AUTO 31006KT 1 1/4SM BR OVC010 00/M01 A2926 RMK AO2 SLP915 T00001006 400171006 56016 PWINO FZRANO $
PAIG 250756Z AUTO 29004KT 1 1/4SM BR OVC012 00/M01 A2927 RMK AO2 SLP921 T00001006 PWINO FZRANO $
PAIG 250656Z AUTO 28004KT 1 1/4SM BR BKN012 OVC032 M01/M01 A2928 RMK AO2 SLP925 T10061011 PWINO FZRANO $
PAIG 250612Z AUTO 27004KT 1 1/4SM BR BKN012 OVC034 M01/M01 A2930 RMK AO2 PWINO FZRANO $
PAIG 250556Z AUTO 28004KT 1 1/4SM BR FEW012 OVC034 M01/M01 A2930 RMK AO2 SLP931 T10061011 10017 21006 56024 PWINO FZRANO $
PAIG 250456Z AUTO 28005KT 1 1/4SM BR OVC036 00/M01 A2932 RMK AO2 SLP938 T00001006 PWINO FZRANO $
PAIG 250412Z AUTO 28006KT 1 1/4SM BR OVC038 00/M01 A2934 RMK AO2 PWINO FZRANO $
PAIG 250403Z AUTO 27004KT 3/4SM BR OVC038 00/00 A2935 RMK AO2 PWINO FZRANO $
PAIG 250356Z AUTO 28005KT 1SM BR OVC038 01/00 A2935 RMK AO2 SLP947 T00060000 PWINO FZRANO $
PAIG 250335Z AUTO 28004KT 1 1/4SM BR SCT016 OVC036 01/00 A2936 RMK AO2 PWINO FZRANO $
PAIG 250256Z AUTO 26005KT 1 1/4SM BR SCT014 BKN026 OVC035 01/00 A2937 RMK AO2 SLP955 T00110000 56014 PWINO FZRANO $
PAIG 250208Z AUTO 29004KT 1 1/4SM BR SCT014 OVC024 01/01 A2938 RMK AO2 PWINO FZRANO $
PAIG 250156Z AUTO 00000KT 1 1/4SM BR FEW008 BKN014 OVC024 01/01 A2939 RMK AO2 SLP961 T00110006 PWINO FZRANO $
PAIG 250147Z AUTO 30004KT 1 1/4SM BR SCT008 BKN016 OVC024 01/01 A2940 RMK AO2 PWINO FZRANO $
PAIG 250124Z AUTO 25003KT 1 1/4SM BR OVC008 01/01 A2940 RMK AO2 CIG 007V012 PWINO FZRANO $
PAIG 250121Z AUTO 25003KT 3/4SM BR OVC008 01/01 A2940 RMK AO2 CIG 007V012 PWINO FZRANO $
PAIG 250117Z AUTO 00000KT 1/4SM FG OVC008 01/01 A2941 RMK AO2 CIG 007V012 PWINO FZRANO $
PAIG 250108Z AUTO 00000KT 1/2SM FG OVC008 01/01 A2941 RMK AO2 CIG 007V012 PWINO FZRANO $
PAIG 250105Z AUTO 00000KT 1SM BR OVC008 01/01 A2941 RMK AO2 CIG 007V012 PWINO FZRANO $
PAIG 250056Z AUTO 00000KT 1 1/4SM BR OVC010 01/01 A2941 RMK AO2 CIG 007V013 SLP969 T00110006 PWINO FZRANO $
PAIG 250044Z AUTO 21003KT 1 1/4SM BR OVC010 02/01 A2942 RMK AO2 CIG 007V013 PWINO FZRANO $
PAIG 250010Z AUTO 00000KT 1 1/4SM BR OVC007 01/01 A2943 RMK AO2 CIG 004V011 PWINO FZRANO $
PAIG 242356Z AUTO 00000KT 1 1/4SM BR BKN005 OVC047 01/01 A2943 RMK AO2 CIG 003V009 SLP976 60001 T00110006 10011 20000 56012 PWINO FZRANO $
PAIG 242340Z AUTO 00000KT 1 1/4SM BR BKN003 BKN020 OVC047 01/01 A2944 RMK AO2 CIG 003V007 PWINO FZRANO $
PAIG 242333Z AUTO 00000KT 1SM BR BKN003 OVC047 01/01 A2944 RMK AO2 PWINO FZRANO $
PAIG 242326Z AUTO 00000KT 3/4SM BR OVC003 01/01 A2944 RMK AO2 PWINO FZRANO $
PAIG 242317Z AUTO 00000KT 3/4SM BR OVC005 01/01 A2945 RMK AO2 PWINO FZRANO $
PAIG 242306Z AUTO 00000KT 1/2SM FG BKN003 OVC016 01/01 A2945 RMK AO2 CIG 003V007 PWINO FZRANO $
PAIG 242256Z AUTO 00000KT 3/4SM BR BKN003 OVC016 01/01 A2945 RMK AO2 CIG 003V007 SLP983 T00110006 PWINO FZRANO $
PAIG 242253Z AUTO 00000KT 3/4SM BR BKN003 OVC016 01/01 A2945 RMK AO2 CIG 003V007 PWINO FZRANO $
PAIG 242241Z AUTO 00000KT 1/4SM FG BKN003 OVC016 01/01 A2946 RMK AO2 PWINO FZRANO $
PAIG 242227Z AUTO 00000KT 1/2SM FG BKN005 BKN009 OVC013 01/01 A2946 RMK AO2 CIG 003V008 PWINO FZRANO $
PAIG 242219Z AUTO 19003KT 1/4SM FG SCT007 OVC013 01/01 A2946 RMK AO2 PWINO FZRANO $
PAIG 242211Z AUTO 19004KT 1/2SM FG BKN007 OVC013 01/01 A2947 RMK AO2 CIG 005V011 PWINO FZRANO $
PAIG 242156Z AUTO 19003KT 1SM BR FEW005 OVC013 01/01 A2947 RMK AO2 SLP988 T00060006 PWINO FZRANO $
PAIG 242107Z AUTO 00000KT 1 1/4SM BR FEW003 OVC019 01/00 A2947 RMK AO2 PWINO FZRANO $
PAIG 242056Z AUTO 00000KT 2SM BR SCT005 OVC019 01/00 A2947 RMK AO2 SLP989 60001 T00060000 56004 PWINO FZRANO $
PAIG 242051Z AUTO 00000KT 2SM BR SCT005 OVC019 01/00 A2947 RMK AO2 PWINO FZRANO $
PAIG 242025Z AUTO 00000KT 2SM BR OVC003 01/00 A2947 RMK AO2 PWINO FZRANO $
PAIG 242007Z AUTO 00000KT 1 1/4SM BR BKN003 OVC014 00/00 A2948 RMK AO2 PWINO FZRANO $
PAIG 242001Z AUTO 18003KT 3/4SM BR BKN003 OVC014 00/00 A2948 RMK AO2 PWINO FZRANO $
PAIG 241956Z AUTO 18003KT 1/2SM FG SCT003 OVC014 00/00 A2948 RMK AO2 SLP991 P0001 T00000000 PWINO FZRANO $
PAIG 241948Z AUTO 00000KT 1/2SM FG BKN003 OVC014 00/00 A2948 RMK AO2 P0001 PWINO FZRANO $
PAIG 241931Z AUTO 00000KT 1/4SM FG BKN003 OVC012 00/00 A2948 RMK AO2 PWINO FZRANO $
PAIG 241921Z AUTO 00000KT 1/4SM FG SCT003 OVC012 00/00 A2948 RMK AO2 PWINO FZRANO $
PAIG 241856Z AUTO 00000KT 1/2SM FG OVC010 00/00 A2948 RMK AO2 SLP993 T00000000 PWINO FZRANO $
PAIG 241840Z AUTO 15003KT 3/4SM BR BKN010 OVC030 00/00 A2949 RMK AO2 PWINO FZRANO $
PAIG 241806Z AUTO 17003KT 1/2SM FG FEW009 BKN012 OVC028 00/M01 A2949 RMK AO2 PWINO FZRANO $
PAIG 241756Z AUTO 18003KT 3/4SM BR BKN012 BKN029 OVC033 00/M01 A2949 RMK AO2 SLP994 60001 T00001006 10011 20000 50001 PWINO FZRANO $
PAIG 241732Z AUTO 19003KT 3/4SM BR BKN010 OVC014 00/M01 A2949 RMK AO2 CIG 008V012 PWINO FZRANO $
PAIG 241728Z AUTO 19003KT 1 1/4SM BR BKN010 OVC014 00/M01 A2949 RMK AO2 CIG 008V012 PWINO FZRANO $
PAIG 241720Z AUTO 18003KT 1SM BR OVC010 00/M01 A2949 RMK AO2 CIG 007V012 PWINO FZRANO $
PAIG 241656Z AUTO 19003KT 1/2SM FG BKN008 BKN021 OVC035 00/00 A2949 RMK AO2 SLP995 P0001 T00000000 PWINO FZRANO $
PAIG 241645Z AUTO 19003KT 1/2SM FG SCT008 BKN021 OVC035 00/00 A2949 RMK AO2 P0001 PWINO FZRANO $
PAIG 241638Z AUTO 20005KT 3/4SM BR FEW008 SCT021 OVC035 00/M01 A2949 RMK AO2 P0001 PWINO FZRANO $
PAIG 241624Z AUTO 19004KT 1/2SM FG FEW003 OVC035 00/00 A2948 RMK AO2 P0001 PWINO FZRANO $
PAIG 241556Z AUTO 20004KT 1/4SM FG FEW005 BKN018 OVC028 00/M01 A2948 RMK AO2 SLP992 T00001006 PWINO FZRANO $
PAIG 241552Z AUTO 20004KT 1/4SM FG SCT010 BKN016 OVC028 00/M01 A2948 RMK AO2 PWINO FZRANO $
PAIG 241539Z AUTO 19005KT 1/2SM FG FEW010 BKN021 OVC028 00/M01 A2948 RMK AO2 PWINO FZRANO $
PAIG 241535Z AUTO 21004KT 1SM BR FEW010 BKN021 OVC030 01/M01 A2948 RMK AO2 PWINO FZRANO $
PAIG 241456Z AUTO 00000KT 2SM BR BKN021 OVC030 01/M01 A2947 RMK AO2 SLP988 T00111006 53010 PWINO FZRANO $
PAIG 241448Z AUTO 32003KT 2SM BR BKN021 OVC030 01/M01 A2947 RMK AO2 PWINO FZRANO $
PAIG 241405Z AUTO 32004KT 2SM BR OVC030 01/M01 A2945 RMK AO2 PWINO FZRANO $
PAIG 241356Z AUTO 31004KT 1 1/2SM BR SCT012 OVC030 01/M01 A2945 RMK AO2 SLP980 T00111011 PWINO FZRANO $
PAIG 241351Z AUTO 31004KT 1 1/4SM BR SCT012 OVC030 01/M01 A2945 RMK AO2 VIS 1/2V2 PWINO FZRANO $
PAIG 241339Z AUTO 00000KT 1 1/2SM BR BKN012 OVC030 01/M01 A2945 RMK AO2 VIS 1V2 PWINO FZRANO $
PAIG 241332Z AUTO 00000KT 1 1/2SM BR SCT012 OVC030 01/M01 A2945 RMK AO2 VIS 1V2 PWINO FZRANO $
PAIG 241321Z AUTO 33004KT 1SM BR FEW012 OVC032 01/M01 A2944 RMK AO2 PWINO FZRANO $
PAIG 241305Z AUTO 00000KT 3/4SM BR BKN032 OVC042 01/M01 A2944 RMK AO2 PWINO FZRANO $
PAIG 241256Z AUTO 00000KT 1 1/2SM BR BKN034 OVC042 01/M01 A2944 RMK AO2 SLP978 T00061011 PWINO FZRANO $
PAIG 241156Z AUTO 00000KT 2SM BR OVC047 00/M01 A2942 RMK AO2 SLP972 7//// T00001011 10011 20000 51028 PWINO FZRANO $